• Join FlightAware (Why Join?)
  • Login
  • US Flag 
04:46PM EDT


 

Airport Tracker/Info


-or-


 

Live Flight TrackerFlight Track Log ✈ UAL582 ✈ 10-Jul-2013 ✈ KORD - KTPA

Flight Track Log - Related Links

Times and Time Zones

All times are in EDT time to prevent confusion due to time zone crossing. See the UAL582 flight status page for this flight to view local times or setup timezone preferences in your user account.

Time Position Orientation Groundspeed Altitude Reporting Facility
EDT Latitude Longitude Course Direction KTS MPH feet Rate Location/Type
08:35PM 41.9500 -87.8333 162° South 210 242 2,400  Level Chicago TRACON
08:36PM 41.9186 -87.8194 162° South 237 273 3,500 2,220 Climbing Chicago Center
08:37PM 41.8417 -87.8175 179° South 272 313 6,100 2,700 Climbing Chicago Center
08:38PM 41.7622 -87.8283 186° South 287 330 9,100 2,700 Climbing Chicago Center
08:39PM 41.6592 -87.8436 186° South 311 358 11,800 1,980 Climbing Chicago Center
08:40PM 41.5647 -87.8556 185° South 341 392 13,200 1,500 Climbing Chicago Center
08:41PM 41.4553 -87.8703 186° South 385 443 14,900 1,860 Climbing Chicago Center
08:42PM 41.3433 -87.8847 186° South 395 455 17,100 1,980 Climbing Chicago Center
08:43PM 41.2286 -87.8925 183° South 406 467 19,100 1,800 Climbing Chicago Center
08:44PM 41.1114 -87.8883 178° South 419 482 20,900 1,620 Climbing Chicago Center
08:45PM 40.9922 -87.8850 179° South 429 494 22,500 1,560 Climbing Chicago Center
08:46PM 40.8456 -87.8797 178° South 441 507 24,200 1,620 Climbing Chicago Center
08:47PM 40.7228 -87.8753 178° South 442 509 25,900 1,500 Climbing Chicago Center
08:48PM 40.5986 -87.8728 179° South 447 514 27,300 1,020 Climbing Chicago Center
08:49PM 40.4769 -87.8683 178° South 443 510 28,000 300 Climbing Chicago Center
08:50PM 40.3567 -87.8650 179° South 436 502 28,000  Level Chicago Center
08:51PM 40.2347 -87.8611 179° South 439 505 28,000  Level Chicago Center
08:52PM 40.0961 -87.8539 178° South 443 510 28,000  Level Chicago Center
08:53PM 40.0183 -87.8508 178° South 444 511 28,000  Level Indianapolis Center
08:54PM 39.8561 -87.8439 178° South 479 551 28,000  Level Indianapolis Center
08:55PM 39.7167 -87.8381 178° South 497 572 28,000  Level Indianapolis Center
08:56PM 39.5783 -87.8322 178° South 500 575 28,000  Level Indianapolis Center
08:57PM 39.4417 -87.8264 178° South 497 572 28,000  Level Indianapolis Center
08:58PM 39.2956 -87.8189 178° South 499 574 28,000  Level Indianapolis Center
08:59PM 39.1581 -87.8153 179° South 495 570 28,000  Level Indianapolis Center
09:00PM 39.0242 -87.8086 178° South 483 556 28,000 240 Level Indianapolis Center
09:01PM 38.8900 -87.8039 178° South 482 555 28,600 1,560 Climbing Indianapolis Center
09:02PM 38.7622 -87.7978 178° South 464 534 31,200 1,860 Climbing Indianapolis Center
09:03PM 38.6403 -87.7922 178° South 443 510 32,400 1,020 Climbing Indianapolis Center
09:04PM 38.5178 -87.7875 178° South 442 509 33,400 1,080 Climbing Indianapolis Center
09:05PM 38.3708 -87.7819 178° South 442 509 34,700 780 Climbing Indianapolis Center
09:06PM 38.2508 -87.7769 178° South 435 501 35,000 120 Climbing Indianapolis Center
09:07PM 38.1303 -87.7722 178° South 434 499 35,000  Level Indianapolis Center
09:08PM 38.0078 -87.7689 179° South 439 505 35,000  Level Indianapolis Center
09:09PM 37.8869 -87.7653 179° South 436 502 35,000  Level Indianapolis Center
09:10PM 37.7556 -87.7619 179° South 438 504 35,000  Level Indianapolis Center
09:11PM 37.6336 -87.7586 179° South 435 501 35,000  Level Indianapolis Center
09:12PM 37.5100 -87.7583 180° South 439 505 35,000  Level Indianapolis Center
09:13PM 37.3867 -87.7575 180° South 440 506 35,000  Level Indianapolis Center
09:14PM 37.2756 -87.7581 180° South 447 514 35,000  Level Memphis Center
09:15PM 37.1547 -87.7569 180° South 442 509 35,000  Level Memphis Center
09:16PM 37.0297 -87.7611 182° South 442 509 35,000  Level Memphis Center
09:17PM 36.9069 -87.7650 181° South 442 509 35,000  Level Memphis Center
09:18PM 36.7819 -87.7689 181° South 442 509 35,000  Level Memphis Center
09:19PM 36.6589 -87.7731 182° South 442 509 35,000  Level Memphis Center
09:20PM 36.5319 -87.7797 182° South 450 518 35,000  Level Memphis Center
09:21PM 36.4069 -87.7861 182° South 455 524 35,000  Level Memphis Center
09:22PM 36.2819 -87.7900 181° South 455 524 35,000  Level Memphis Center
09:23PM 36.1569 -87.7942 182° South 455 524 35,000  Level Memphis Center
09:24PM 36.0336 -87.7747 173° South 455 524 35,000  Level Memphis Center
09:25PM 35.9197 -87.7092 155° Southeast 446 513 35,000  Level Memphis Center
09:26PM 35.8056 -87.6361 153° Southeast 458 527 35,000  Level Memphis Center
09:27PM 35.7039 -87.5731 153° Southeast 463 533 35,000  Level Memphis Center
09:28PM 35.5919 -87.5028 153° Southeast 457 526 35,000  Level Memphis Center
09:29PM 35.4797 -87.4378 155° Southeast 446 513 35,000  Level Memphis Center
09:30PM 35.3631 -87.3578 151° Southeast 446 513 35,000  Level Memphis Center
09:31PM 35.2550 -87.2881 152° Southeast 441 507 35,000  Level Memphis Center
09:33PM 35.0489 -87.1467 151° Southeast 425 489 35,000  Level Atlanta Center
09:34PM 34.9400 -87.0767 152° Southeast 431 496 35,000  Level Atlanta Center
09:35PM 34.8292 -87.0019 151° Southeast 443 510 35,000  Level Atlanta Center
09:36PM 34.7389 -86.9431 152° Southeast 448 516 35,000 120 Level Atlanta Center
09:37PM 34.6175 -86.8656 152° Southeast 448 516 35,300 720 Climbing Atlanta Center
09:38PM 34.5044 -86.7914 152° Southeast 448 516 36,500 840 Climbing Atlanta Center
09:39PM 34.3975 -86.7225 152° Southeast 443 510 37,000 240 Climbing Atlanta Center
09:40PM 34.2842 -86.6508 152° Southeast 448 516 37,000  Level Atlanta Center
09:41PM 34.1731 -86.5797 152° Southeast 448 516 37,000  Level Atlanta Center
09:42PM 34.0575 -86.5061 152° Southeast 453 521 37,100  Climbing Atlanta Center
09:43PM 33.9461 -86.4378 153° Southeast 453 521 37,100 -60 Level Atlanta Center
09:44PM 33.8350 -86.3644 151° Southeast 448 516 37,000 -60 Descending Atlanta Center
09:45PM 33.7236 -86.2967 153° Southeast 448 516 37,000  Level Atlanta Center
09:46PM 33.6119 -86.2264 152° Southeast 448 516 37,000  Level Atlanta Center
09:47PM 33.4944 -86.1536 153° Southeast 443 510 37,000  Level Atlanta Center
09:48PM 33.3850 -86.0764 149° Southeast 451 519 37,000  Level Atlanta Center
09:49PM 33.2711 -86.0142 155° Southeast 451 519 37,000  Level Atlanta Center
09:50PM 33.1597 -85.9419 152° Southeast 445 512 37,000  Level Atlanta Center
09:51PM 33.0481 -85.8728 153° Southeast 445 512 37,000  Level Atlanta Center
09:52PM 32.9364 -85.8036 153° Southeast 450 518 37,000  Level Atlanta Center
09:53PM 32.8267 -85.7322 151° Southeast 445 512 37,000  Level Atlanta Center
09:54PM 32.7128 -85.6633 153° Southeast 452 520 37,000  Level Atlanta Center
09:55PM 32.5989 -85.5922 152° Southeast 452 520 37,000  Level Atlanta Center
09:56PM 32.4994 -85.5339 154° Southeast 452 520 37,000  Level Atlanta Center
09:58PM 32.2753 -85.3964 153° Southeast 471 542 37,000  Level Jacksonville Center
09:59PM 32.1619 -85.3294 153° Southeast 471 542 37,000  Level Jacksonville Center
10:00PM 32.0442 -85.2603 154° Southeast 463 533 37,000  Level Jacksonville Center
10:01PM 31.9286 -85.1911 153° Southeast 463 533 37,000  Level Jacksonville Center
10:02PM 31.8253 -85.1297 153° Southeast 463 533 37,000  Level Jacksonville Center
10:03PM 31.7075 -85.0611 154° Southeast 463 533 37,000  Level Jacksonville Center
10:04PM 31.5897 -84.9900 153° Southeast 468 539 37,000  Level Jacksonville Center
10:05PM 31.4739 -84.9192 152° Southeast 468 539 37,000  Level Jacksonville Center
10:06PM 31.3436 -84.8411 153° Southeast 462 532 37,000  Level Jacksonville Center
10:07PM 31.2319 -84.7658 150° Southeast 462 532 37,000  Level Jacksonville Center
10:08PM 31.1500 -84.6475 129° Southeast 457 526 37,000  Level Jacksonville Center
10:09PM 31.0725 -84.5297 128° Southeast 452 520 37,000  Level Jacksonville Center
10:10PM 30.9925 -84.4119 128° Southeast 459 528 37,000  Level Jacksonville Center
10:11PM 30.9122 -84.2944 129° Southeast 459 528 37,000 -120 Level Jacksonville Center
10:12PM 30.8322 -84.1725 127° Southeast 465 535 36,800 -600 Descending Jacksonville Center
10:13PM 30.7539 -84.0578 128° Southeast 465 535 35,900 -960 Descending Jacksonville Center
10:14PM 30.6736 -83.9383 128° Southeast 465 535 34,900 -1,020 Descending Jacksonville Center
10:15PM 30.5950 -83.8217 128° Southeast 465 535 33,900 -1,020 Descending Jacksonville Center
10:16PM 30.5186 -83.7028 127° Southeast 465 535 32,900 -960 Descending Jacksonville Center
10:17PM 30.4358 -83.5864 130° Southeast 465 535 32,000 -960 Descending Jacksonville Center
10:18PM 30.3572 -83.4656 127° Southeast 465 535 31,000 -960 Descending Jacksonville Center
10:19PM 30.2783 -83.3519 129° Southeast 465 535 30,100 -960 Descending Jacksonville Center
10:20PM 30.1972 -83.2361 129° Southeast 465 535 29,100 -600 Descending Jacksonville Center
10:21PM 30.1161 -83.1158 128° Southeast 470 541 28,900 -360 Descending Jacksonville Center
10:22PM 30.0325 -82.9958 129° Southeast 470 541 28,400 -720 Descending Jacksonville Center
10:23PM 29.9575 -82.8878 129° Southeast 479 551 27,500 -780 Descending Jacksonville Center
10:24PM 29.8719 -82.7681 129° Southeast 479 551 26,900 -420 Descending Jacksonville Center
10:25PM 29.7797 -82.6606 135° Southeast 479 551 26,700 -540 Descending Jacksonville Center
10:26PM 29.6689 -82.5650 143° Southeast 479 551 25,900 -360 Descending Jacksonville Center
10:27PM 29.5622 -82.4722 143° Southeast 484 557 26,000  Climbing Jacksonville Center
10:28PM 29.4556 -82.3822 144° Southeast 484 557 25,900 -480 Descending Jacksonville Center
10:29PM 29.3444 -82.3136 152° Southeast 472 543 25,100 -840 Descending Jacksonville Center
10:30PM 29.2189 -82.2597 159° South 466 536 24,300 -900 Descending Jacksonville Center
10:31PM 29.0978 -82.2153 162° South 466 536 23,300 -1,500 Descending Jacksonville Center
10:32PM 28.9744 -82.1853 168° South 461 531 21,300 -2,760 Descending Jacksonville Center
10:33PM 28.8450 -82.1672 173° South 442 509 17,800 -2,820 Descending Jacksonville Center
10:35PM 28.6500 -82.2167 193° South 318 366 12,900 -2,160 Descending Tampa TRACON
10:36PM 28.5667 -82.2333 190° South 306 352 11,400 -960 Descending Tampa TRACON
10:37PM 28.4833 -82.2667 199° South 307 353 11,000 -240 Descending Tampa TRACON
10:38PM 28.4167 -82.3000 204° Southwest 302 348 11,000  Level Tampa TRACON
10:39PM 28.3333 -82.3167 190° South 304 350 11,000 -720 Level Tampa TRACON
10:40PM 28.2500 -82.3167 180° South 297 342 9,600 -1,020 Descending Tampa TRACON
10:41PM 28.1667 -82.3167 180° South 296 341 9,000 -600 Descending Tampa TRACON
10:42PM 28.0833 -82.3000 170° South 294 338 8,500 -1,080 Descending Tampa TRACON
10:43PM 28.0000 -82.3000 180° South 287 330 6,900 -1,320 Descending Tampa TRACON
10:44PM 27.9333 -82.3333 204° Southwest 279 321 5,900 -780 Descending Tampa TRACON
10:45PM 27.8667 -82.3833 214° Southwest 235 270 5,300 -720 Descending Tampa TRACON
10:46PM 27.8333 -82.4333 233° Southwest 206 237 4,500 -840 Descending Tampa TRACON